Irene, South Africa

7:43 PM SAST on September 17, 2014 (GMT +0200)
Zwartkop | Change Station
CLOSE
Current Station
Personal Weather Station
Location: Centurion, GAUTENG
Elevation: 4872 ft
Nearby Weather Stations

Elev 4872 ft 25.87 °S, 28.19 °E | Updated 4 seconds ago

Clear
Clear
69.3 °F
Feels Like 69.3 °F
N
0.0
Wind Variable Wind from North
Gusts 0.0 mph

Today
High -- | Low -- °F
--% Chance of Precip.
Yesterday
High -- | Low -- °F
Precip. -- in
6:02 AM 6:01 PM
Waning Crescent, 34% visible
Pressure 30.12 in
Visibility -9999.0 miles
Clouds
Dew Point 33 °F
Humidity 26%
Rainfall 0.00 in
Snow Depth Not available.
UV 0.0 out of 12
Pollen Not available.
Air Quality Not available.
Flu Activity Not available.
METAR FAWK 171700Z AUTO 34002KT //// // ////// 25/M02 Q1020

More Conditions Fewer Conditions

Pressure 30.12 in
Visibility -9999.0 miles
Clouds
Dew Point 33 °F
Humidity 26%
Rainfall 0.00 in
Snow Depth Not available.
UV 0.0 out of 12
Pollen Not available.
Air Quality Not available.
Flu Activity Not available.
METAR FAWK 171700Z AUTO 34002KT //// // ////// 25/M02 Q1020

More Conditions Fewer Conditions

10-Day Weather Forecast

Almanac

Astronomy

Sep. 17, 2014 Rise Set
Actual Time 6:02 AM SAST 6:01 PM SAST
Civil Twilight 5:39 AM SAST 6:24 PM SAST
Nautical Twilight 5:12 AM SAST 6:50 PM SAST
Astronomical Twilight 4:46 AM SAST 7:17 PM SAST
Moon 1:18 AM SAST 12:25 PM SAST
Length of Visible Light 12h 44m
Length of Day
11h 58m
Tomorrow will be 1m 30s longer.
Waning Crescent, 34% of the Moon is Illuminated
Today
Waning Crescent
Sep 24
New
Oct 1
First Quarter
Oct 8
Full
Oct 15
Last Quarter

Today's Extremes

Country Highs Country Lows

Community

WunderPhotos

Upload Photos

1,754,111 photos uploaded!

Nearby

Snow Depth

Not available.

Earthquake Activity

City Distance Mag. Time & Date
No recent earthquake activity has been reported nearby.
Minimum magnitude displayed is 2.5.

Coastal Water Temperatures

Place Temperature
No Stations Reporting

Nearby Weather Stations